KRP weather

Karup Airport
Karup, Central Jutland, Denmark

Public forecast

Using degrees Celsius for public forecast. Weather courtesy of forecast.io.

Current aviation weather report (METAR) for Karup Airport

Retrieved 2019/10/20 04:20 UTC (18 minutes ago):

EKKA 200420Z AUTO 17005KT 140V200 5000 BKN068/// 10/09 Q1005

Aviation forecast (TAF) for Karup Airport

Retrieved 2019-10-20 03:31 UTC (1 hour ago):

TAF EKKA 200214Z 2003/2103 18005KT 9999 SCT020 SCT050 TEMPO 2003/2008 2000 -SHRA BR BKN003 SCT020CB TEMPO 2008/2015 7000 -SHRA BKN012 SCT020CB BECMG 2011/2014 22006KT BECMG 2017/2019 VRB03KT 4000 BR TEMPO 2019/2021 0300 BCFG BECMG 2021/2023 0100 FG BKN001 TEMPO 2023/2103 0800 BKN002